Baltic Princess — 3EPD3 — position and weather

sailwx.info

Track history (hours):
 
Tides and Currents Weather Stations Pressure Air Temp Water Temp Dewpoint Dewpoint Depression Visibility Wind Speed Wind Dir Waves Ship Positions

Baltic Princess

Last reported at 2018-Jun-23 04:30 UTC. Time now 2018-Jun-23 04:44 UTC.
Position N 54°38' E 011°04'.

Length 120 m; draft 8.7 m.

Type: Cargo ship. MMSI: 374666000.

Date/timePositionNaut miles runAvg speedWind from/ knotsBaromVisibWave heightAir tempDewpointWater temp
2018-Jun-23 04:30N 54°38' E 011°04'4 7.5
2018-Jun-23 04:00N 54°37' E 011°10'4 7.1
2018-Jun-23 03:30N 54°35' E 011°15'4 7.2
2018-Jun-23 03:00N 54°33' E 011°21'4 7.4
2018-Jun-23 02:30N 54°32' E 011°27'4 7.1
2018-Jun-23 02:00N 54°30' E 011°32'4 7.7
2018-Jun-23 01:29N 54°29' E 011°38'16 7.2
2018-Jun-22 23:14N 54°27' E 012°06'2 7.6
2018-Jun-22 22:59N 54°27' E 012°09'4 8.5
2018-Jun-22 22:30N 54°31' E 012°12'71 8.1
2018-Jun-22 13:45N 55°03' E 014°01'7 9.0
2018-Jun-22 12:58N 55°08' E 014°10'4 9.1
2018-Jun-22 12:29N 55°11' E 014°14'6 9.2
2018-Jun-22 11:50N 55°16' E 014°21'3 9.1
2018-Jun-22 11:30N 55°19' E 014°24'6 9.0
2018-Jun-22 10:52N 55°23' E 014°30'6 8.9
2018-Jun-22 10:15N 55°27' E 014°37'3 9.0
2018-Jun-22 09:54N 55°28' E 014°42'4 8.9
2018-Jun-22 09:30N 55°30' E 014°48'4 8.7
2018-Jun-22 08:59N 55°32' E 014°54'5 8.4
2018-Jun-22 08:21N 55°34' E 015°03'345 7.9
2018-Jun-20 12:34N 59°33' E 022°49'12 8.1
2018-Jun-20 11:03N 59°36' E 023°12'0 7.9
2018-Jun-20 10:59N 59°36' E 023°13'4 8.1
2018-Jun-20 10:28N 59°38' E 023°21'4 8.0
2018-Jun-20 10:00N 59°39' E 023°28'4 8.0
2018-Jun-20 09:30N 59°40' E 023°35'5 8.1
2018-Jun-20 08:51N 59°41' E 023°45'3 8.2
2018-Jun-20 08:30N 59°42' E 023°51'4 8.3
2018-Jun-20 08:00N 59°43' E 023°59'10 8.3
2018-Jun-20 06:48N 59°46' E 024°18'2 8.1
2018-Jun-20 06:30N 59°47' E 024°22'5 8.9
2018-Jun-20 05:58N 59°48' E 024°32'4 7.5
2018-Jun-20 05:29N 59°49' E 024°39'4 7.7
2018-Jun-20 05:00N 59°49' E 024°46'4 7.9
2018-Jun-20 04:30N 59°50' E 024°54'4 7.9
2018-Jun-20 04:00N 59°51' E 025°01'12 8.1
2018-Jun-20 02:34N 59°53' E 025°24'1 8.2
2018-Jun-20 02:29N 59°53' E 025°26'24 8.5
2018-Jun-19 23:38N 59°59' E 026°12'1 7.6
2018-Jun-19 23:29N 59°59' E 026°15'4 8.1
2018-Jun-19 23:00N 59°60' E 026°22'4 8.0
2018-Jun-19 22:30N 60°01' E 026°30'4 8.4
2018-Jun-19 22:00N 60°01' E 026°38'4 7.9
2018-Jun-19 21:30N 60°01' E 026°46'4 8.4
2018-Jun-19 21:00N 59°60' E 026°54'4 8.0
2018-Jun-19 20:31N 59°59' E 027°02'4 8.6
2018-Jun-19 20:00N 60°01' E 027°10'4 8.6
2018-Jun-19 19:30N 60°04' E 027°17'4 8.5
2018-Jun-19 19:00N 60°06' E 027°25'4 8.3
2018-Jun-19 18:30N 60°08' E 027°32'4 8.0
2018-Jun-19 18:00N 60°10' E 027°39'3 7.0
2018-Jun-19 17:30N 60°12' E 027°45'4 7.3
2018-Jun-19 17:00N 60°11' E 027°52'3 5.9
2018-Jun-19 16:30N 60°10' E 027°58'4 7.1
2018-Jun-19 15:59N 60°09' E 028°05'3 6.4
2018-Jun-19 15:30N 60°09' E 028°11'4 7.9
2018-Jun-19 15:01N 60°07' E 028°18'4 7.1
2018-Jun-19 14:30N 60°05' E 028°24'4 8.2
2018-Jun-19 14:00N 60°03' E 028°31'4 8.3
2018-Jun-19 13:30N 60°03' E 028°40'35 8.4
2018-Jun-19 09:23N 59°58' E 029°48'8 9.0
2018-Jun-19 08:32N 59°55' E 030°02'0 8.8
2018-Jun-19 08:30N 59°55' E 030°03'4 7.6
2018-Jun-19 08:00N 59°53' E 030°10'1 1.9
2018-Jun-19 07:29N 59°53' E 030°11'0 0.0
2018-Jun-19 06:59N 59°53' E 030°11'0 0.0
2018-Jun-19 06:29N 59°53' E 030°11'0 0.0
2018-Jun-19 05:56N 59°53' E 030°11'0 0.0
2018-Jun-18 22:16N 59°53' E 030°11'0 0.1
2018-Jun-18 21:58N 59°53' E 030°11'0 0.1
2018-Jun-18 21:28N 59°53' E 030°11'0 0.0
2018-Jun-18 20:58N 59°53' E 030°11'0 0.0
2018-Jun-18 20:28N 59°53' E 030°11'0 0.0
2018-Jun-18 19:58N 59°53' E 030°11'0 0.0
2018-Jun-18 19:28N 59°53' E 030°11'0 0.0
2018-Jun-18 18:58N 59°53' E 030°11'0 0.0
2018-Jun-18 18:28N 59°53' E 030°11'0 0.0
2018-Jun-18 17:58N 59°53' E 030°11'0 0.0
2018-Jun-18 17:28N 59°53' E 030°11'0 0.0
2018-Jun-18 16:58N 59°53' E 030°11'0 0.0
2018-Jun-18 16:28N 59°53' E 030°11'0 0.0
2018-Jun-18 15:55N 59°53' E 030°11'0 0.0
2018-Jun-18 15:28N 59°53' E 030°11'0 0.0
2018-Jun-18 14:55N 59°53' E 030°11'0 0.0
2018-Jun-18 14:22N 59°53' E 030°11'0 0.0
2018-Jun-18 13:55N 59°53' E 030°11'0 0.0
2018-Jun-18 13:25N 59°53' E 030°11'0 0.0
2018-Jun-18 12:58N 59°53' E 030°11'0 0.0
2018-Jun-18 12:28N 59°53' E 030°11'0 0.0
2018-Jun-18 11:58N 59°53' E 030°11'0 0.0
2018-Jun-18 11:25N 59°53' E 030°11'0 0.0
2018-Jun-18 10:58N 59°53' E 030°11'0 0.0
2018-Jun-18 10:28N 59°53' E 030°11'0 0.0
2018-Jun-18 09:58N 59°53' E 030°11'0 0.0
2018-Jun-18 09:28N 59°53' E 030°11'0 0.0
2018-Jun-18 08:58N 59°53' E 030°11'0 0.0
2018-Jun-18 08:28N 59°53' E 030°11'0 0.0
2018-Jun-18 07:58N 59°53' E 030°11'0 0.0
2018-Jun-18 07:28N 59°53' E 030°11'0 0.0
2018-Jun-18 06:58N 59°53' E 030°11'0 0.0
2018-Jun-18 06:28N 59°53' E 030°11'0 0.0
2018-Jun-18 05:58N 59°53' E 030°11'0 0.0
2018-Jun-18 05:28N 59°53' E 030°11'0 0.0
2018-Jun-18 04:57N 59°53' E 030°11'0 0.0
2018-Jun-18 04:31N 59°53' E 030°11'0 0.0
2018-Jun-18 03:57N 59°53' E 030°11'0 0.0
2018-Jun-18 03:30N 59°53' E 030°11'0 0.0
2018-Jun-18 02:52N 59°53' E 030°11'0 0.0
2018-Jun-18 02:21N 59°53' E 030°11'0 0.0
2018-Jun-18 01:58N 59°53' E 030°11'0 0.0
2018-Jun-18 01:25N 59°53' E 030°11'0 0.0
2018-Jun-18 00:49N 59°53' E 030°11'0 0.2
2018-Jun-18 00:21N 59°53' E 030°12'0 0.3
2018-Jun-18 00:01N 59°53' E 030°11'0 0.0
2018-Jun-17 23:28N 59°53' E 030°11'0 0.0
2018-Jun-17 23:01N 59°53' E 030°11'0 0.0
2018-Jun-17 22:30N 59°53' E 030°11'0 0.0
2018-Jun-17 22:01N 59°53' E 030°11'0 0.2
2018-Jun-17 21:27N 59°53' E 030°12'0 0.2
2018-Jun-17 21:01N 59°53' E 030°11'0 0.0
2018-Jun-17 20:31N 59°53' E 030°11'0 0.0
2018-Jun-17 19:58N 59°53' E 030°11'0 0.0
2018-Jun-17 19:28N 59°53' E 030°11'0 0.0
2018-Jun-17 18:58N 59°53' E 030°11'0 0.0
2018-Jun-17 18:27N 59°53' E 030°11'0 0.0
2018-Jun-17 17:58N 59°53' E 030°11'0 0.0
2018-Jun-17 17:28N 59°53' E 030°11'0 0.0
2018-Jun-17 17:01N 59°53' E 030°11'0 0.0
2018-Jun-17 16:27N 59°53' E 030°11'0 0.0
2018-Jun-17 15:58N 59°53' E 030°11'0 0.0
2018-Jun-17 15:30N 59°53' E 030°11'1 1.6
2018-Jun-17 15:00N 59°53' E 030°10'3 5.6
2018-Jun-17 14:30N 59°54' E 030°05'5 9.8
2018-Jun-17 14:00N 59°56' E 029°56'510.1
2018-Jun-17 13:30N 59°58' E 029°47'13 9.1
2018-Jun-17 12:06N 60°01' E 029°22'1 0.3
2018-Jun-17 09:55N 60°01' E 029°21'0 0.0
2018-Jun-17 09:16N 60°01' E 029°21'0 0.0
2018-Jun-17 08:58N 60°01' E 029°21'0 0.0
2018-Jun-17 08:22N 60°01' E 029°21'0 0.0
2018-Jun-17 07:50N 60°01' E 029°21'0 0.0
2018-Jun-17 07:25N 60°01' E 029°21'0 0.0
2018-Jun-17 06:53N 60°01' E 029°21'0 0.1
2018-Jun-17 06:25N 60°01' E 029°21'0 0.1
2018-Jun-17 05:55N 60°01' E 029°21'0 0.1
2018-Jun-17 04:40N 60°01' E 029°21'0 0.1
2018-Jun-17 04:30N 60°01' E 029°21'0 0.0
2018-Jun-17 03:52N 60°01' E 029°21'0 0.1
2018-Jun-17 03:28N 60°01' E 029°21'0 0.0
2018-Jun-17 02:49N 60°01' E 029°21'0 0.1
2018-Jun-17 02:25N 60°01' E 029°21'0 0.1
2018-Jun-17 01:57N 60°01' E 029°21'1 1.5
2018-Jun-17 01:29N 60°01' E 029°20'4 7.7
2018-Jun-17 00:54N 60°02' E 029°11'3 8.1
2018-Jun-17 00:29N 60°02' E 029°05'712.5
2018-Jun-16 23:57N 60°02' E 028°51'4 8.3
2018-Jun-16 23:30N 60°02' E 028°44'611.1
2018-Jun-16 23:00N 60°03' E 028°33'510.3
2018-Jun-16 22:30N 60°04' E 028°23'510.6
2018-Jun-16 22:00N 60°07' E 028°14'510.9
2018-Jun-16 21:30N 60°09' E 028°04'610.7
2018-Jun-16 20:56N 60°10' E 027°52'612.0
2018-Jun-16 20:25N 60°09' E 027°39'4 8.0
2018-Jun-16 19:58N 60°07' E 027°33'510.7
2018-Jun-16 19:30N 60°04' E 027°25'712.9
2018-Jun-16 18:59N 60°01' E 027°13'4 7.8
2018-Jun-16 18:30N 59°58' E 027°07'3 5.5
2018-Jun-16 18:00N 59°58' E 027°02'510.9
2018-Jun-16 17:30N 59°59' E 026°51'510.9
2018-Jun-16 17:00N 59°59' E 026°40'610.9
2018-Jun-16 16:30N 59°58' E 026°29'1010.8
2018-Jun-16 15:34N 59°56' E 026°10'110.6
2018-Jun-16 15:30N 59°55' E 026°09'510.4
2018-Jun-16 15:00N 59°54' E 025°59'510.5
2018-Jun-16 14:30N 59°53' E 025°49'510.4
2018-Jun-16 14:00N 59°52' E 025°39'510.4
2018-Jun-16 13:30N 59°51' E 025°29'510.4
2018-Jun-16 13:00N 59°49' E 025°19'510.2
2018-Jun-16 12:30N 59°48' E 025°08'510.3
2018-Jun-16 12:00N 59°47' E 024°59'510.5
2018-Jun-16 11:30N 59°46' E 024°48'710.7
2018-Jun-16 10:52N 59°45' E 024°35'410.8
2018-Jun-16 10:30N 59°44' E 024°28'910.8
2018-Jun-16 09:42N 59°41' E 024°11'210.8
2018-Jun-16 09:30N 59°40' E 024°07'510.8
2018-Jun-16 09:00N 59°39' E 023°57'510.5
2018-Jun-16 08:30N 59°37' E 023°47'510.6
2018-Jun-16 08:00N 59°35' E 023°37'510.7
2018-Jun-16 07:30N 59°34' E 023°27'510.6
2018-Jun-16 07:00N 59°32' E 023°17'510.6
2018-Jun-16 06:30N 59°30' E 023°07'710.8
2018-Jun-16 05:50N 59°28' E 022°54'410.7
2018-Jun-16 05:30N 59°27' E 022°47'3010.5
2018-Jun-16 02:39N 59°10' E 021°59'210.6
2018-Jun-16 02:30N 59°09' E 021°56'1810.3
2018-Jun-16 00:47N 58°57' E 021°33'310.2
2018-Jun-16 00:30N 58°54' E 021°30'  
Track history (hours):
 
Tides and Currents Weather Stations Pressure Air Temp Water Temp Dewpoint Dewpoint Depression Visibility Wind Speed Wind Dir Waves Ship Positions

Baltic Princess

Last reported at 2018-Jun-23 04:30 UTC. Time now 2018-Jun-23 04:44 UTC.
Position N 54°38' E 011°04'.

Length 120 m; draft 8.7 m.

Type: Cargo ship. MMSI: 374666000.

Date/timePositionNaut miles runAvg speedWind from/ knotsBaromVisibWave heightAir tempDewpointWater temp
2018-Jun-23 04:30N 54°38' E 011°04'4 7.5
2018-Jun-23 04:00N 54°37' E 011°10'4 7.1
2018-Jun-23 03:30N 54°35' E 011°15'4 7.2
2018-Jun-23 03:00N 54°33' E 011°21'4 7.4
2018-Jun-23 02:30N 54°32' E 011°27'4 7.1
2018-Jun-23 02:00N 54°30' E 011°32'4 7.7
2018-Jun-23 01:29N 54°29' E 011°38'16 7.2
2018-Jun-22 23:14N 54°27' E 012°06'2 7.6
2018-Jun-22 22:59N 54°27' E 012°09'4 8.5
2018-Jun-22 22:30N 54°31' E 012°12'71 8.1
2018-Jun-22 13:45N 55°03' E 014°01'7 9.0
2018-Jun-22 12:58N 55°08' E 014°10'4 9.1
2018-Jun-22 12:29N 55°11' E 014°14'6 9.2
2018-Jun-22 11:50N 55°16' E 014°21'3 9.1
2018-Jun-22 11:30N 55°19' E 014°24'6 9.0
2018-Jun-22 10:52N 55°23' E 014°30'6 8.9
2018-Jun-22 10:15N 55°27' E 014°37'3 9.0
2018-Jun-22 09:54N 55°28' E 014°42'4 8.9
2018-Jun-22 09:30N 55°30' E 014°48'4 8.7
2018-Jun-22 08:59N 55°32' E 014°54'5 8.4
2018-Jun-22 08:21N 55°34' E 015°03'345 7.9
2018-Jun-20 12:34N 59°33' E 022°49'12 8.1
2018-Jun-20 11:03N 59°36' E 023°12'0 7.9
2018-Jun-20 10:59N 59°36' E 023°13'4 8.1
2018-Jun-20 10:28N 59°38' E 023°21'4 8.0
2018-Jun-20 10:00N 59°39' E 023°28'4 8.0
2018-Jun-20 09:30N 59°40' E 023°35'5 8.1
2018-Jun-20 08:51N 59°41' E 023°45'3 8.2
2018-Jun-20 08:30N 59°42' E 023°51'4 8.3
2018-Jun-20 08:00N 59°43' E 023°59'10 8.3
2018-Jun-20 06:48N 59°46' E 024°18'2 8.1
2018-Jun-20 06:30N 59°47' E 024°22'5 8.9
2018-Jun-20 05:58N 59°48' E 024°32'4 7.5
2018-Jun-20 05:29N 59°49' E 024°39'4 7.7
2018-Jun-20 05:00N 59°49' E 024°46'4 7.9
2018-Jun-20 04:30N 59°50' E 024°54'4 7.9
2018-Jun-20 04:00N 59°51' E 025°01'12 8.1
2018-Jun-20 02:34N 59°53' E 025°24'1 8.2
2018-Jun-20 02:29N 59°53' E 025°26'24 8.5
2018-Jun-19 23:38N 59°59' E 026°12'1 7.6
2018-Jun-19 23:29N 59°59' E 026°15'4 8.1
2018-Jun-19 23:00N 59°60' E 026°22'4 8.0
2018-Jun-19 22:30N 60°01' E 026°30'4 8.4
2018-Jun-19 22:00N 60°01' E 026°38'4 7.9
2018-Jun-19 21:30N 60°01' E 026°46'4 8.4
2018-Jun-19 21:00N 59°60' E 026°54'4 8.0
2018-Jun-19 20:31N 59°59' E 027°02'4 8.6
2018-Jun-19 20:00N 60°01' E 027°10'4 8.6
2018-Jun-19 19:30N 60°04' E 027°17'4 8.5
2018-Jun-19 19:00N 60°06' E 027°25'4 8.3
2018-Jun-19 18:30N 60°08' E 027°32'4 8.0
2018-Jun-19 18:00N 60°10' E 027°39'3 7.0
2018-Jun-19 17:30N 60°12' E 027°45'4 7.3
2018-Jun-19 17:00N 60°11' E 027°52'3 5.9
2018-Jun-19 16:30N 60°10' E 027°58'4 7.1
2018-Jun-19 15:59N 60°09' E 028°05'3 6.4
2018-Jun-19 15:30N 60°09' E 028°11'4 7.9
2018-Jun-19 15:01N 60°07' E 028°18'4 7.1
2018-Jun-19 14:30N 60°05' E 028°24'4 8.2
2018-Jun-19 14:00N 60°03' E 028°31'4 8.3
2018-Jun-19 13:30N 60°03' E 028°40'35 8.4
2018-Jun-19 09:23N 59°58' E 029°48'8 9.0
2018-Jun-19 08:32N 59°55' E 030°02'0 8.8
2018-Jun-19 08:30N 59°55' E 030°03'4 7.6
2018-Jun-19 08:00N 59°53' E 030°10'1 1.9
2018-Jun-19 07:29N 59°53' E 030°11'0 0.0
2018-Jun-19 06:59N 59°53' E 030°11'0 0.0
2018-Jun-19 06:29N 59°53' E 030°11'0 0.0
2018-Jun-19 05:56N 59°53' E 030°11'0 0.0
2018-Jun-18 22:16N 59°53' E 030°11'0 0.1
2018-Jun-18 21:58N 59°53' E 030°11'0 0.1
2018-Jun-18 21:28N 59°53' E 030°11'0 0.0
2018-Jun-18 20:58N 59°53' E 030°11'0 0.0
2018-Jun-18 20:28N 59°53' E 030°11'0 0.0
2018-Jun-18 19:58N 59°53' E 030°11'0 0.0
2018-Jun-18 19:28N 59°53' E 030°11'0 0.0
2018-Jun-18 18:58N 59°53' E 030°11'0 0.0
2018-Jun-18 18:28N 59°53' E 030°11'0 0.0
2018-Jun-18 17:58N 59°53' E 030°11'0 0.0
2018-Jun-18 17:28N 59°53' E 030°11'0 0.0
2018-Jun-18 16:58N 59°53' E 030°11'0 0.0
2018-Jun-18 16:28N 59°53' E 030°11'0 0.0
2018-Jun-18 15:55N 59°53' E 030°11'0 0.0
2018-Jun-18 15:28N 59°53' E 030°11'0 0.0
2018-Jun-18 14:55N 59°53' E 030°11'0 0.0
2018-Jun-18 14:22N 59°53' E 030°11'0 0.0
2018-Jun-18 13:55N 59°53' E 030°11'0 0.0
2018-Jun-18 13:25N 59°53' E 030°11'0 0.0
2018-Jun-18 12:58N 59°53' E 030°11'0 0.0
2018-Jun-18 12:28N 59°53' E 030°11'0 0.0
2018-Jun-18 11:58N 59°53' E 030°11'0 0.0
2018-Jun-18 11:25N 59°53' E 030°11'0 0.0
2018-Jun-18 10:58N 59°53' E 030°11'0 0.0
2018-Jun-18 10:28N 59°53' E 030°11'0 0.0
2018-Jun-18 09:58N 59°53' E 030°11'0 0.0
2018-Jun-18 09:28N 59°53' E 030°11'0 0.0
2018-Jun-18 08:58N 59°53' E 030°11'0 0.0
2018-Jun-18 08:28N 59°53' E 030°11'0 0.0
2018-Jun-18 07:58N 59°53' E 030°11'0 0.0
2018-Jun-18 07:28N 59°53' E 030°11'0 0.0
2018-Jun-18 06:58N 59°53' E 030°11'0 0.0
2018-Jun-18 06:28N 59°53' E 030°11'0 0.0
2018-Jun-18 05:58N 59°53' E 030°11'0 0.0
2018-Jun-18 05:28N 59°53' E 030°11'0 0.0
2018-Jun-18 04:57N 59°53' E 030°11'0 0.0
2018-Jun-18 04:31N 59°53' E 030°11'0 0.0
2018-Jun-18 03:57N 59°53' E 030°11'0 0.0
2018-Jun-18 03:30N 59°53' E 030°11'0 0.0
2018-Jun-18 02:52N 59°53' E 030°11'0 0.0
2018-Jun-18 02:21N 59°53' E 030°11'0 0.0
2018-Jun-18 01:58N 59°53' E 030°11'0 0.0
2018-Jun-18 01:25N 59°53' E 030°11'0 0.0
2018-Jun-18 00:49N 59°53' E 030°11'0 0.2
2018-Jun-18 00:21N 59°53' E 030°12'0 0.3
2018-Jun-18 00:01N 59°53' E 030°11'0 0.0
2018-Jun-17 23:28N 59°53' E 030°11'0 0.0
2018-Jun-17 23:01N 59°53' E 030°11'0 0.0
2018-Jun-17 22:30N 59°53' E 030°11'0 0.0
2018-Jun-17 22:01N 59°53' E 030°11'0 0.2
2018-Jun-17 21:27N 59°53' E 030°12'0 0.2
2018-Jun-17 21:01N 59°53' E 030°11'0 0.0
2018-Jun-17 20:31N 59°53' E 030°11'0 0.0
2018-Jun-17 19:58N 59°53' E 030°11'0 0.0
2018-Jun-17 19:28N 59°53' E 030°11'0 0.0
2018-Jun-17 18:58N 59°53' E 030°11'0 0.0
2018-Jun-17 18:27N 59°53' E 030°11'0 0.0
2018-Jun-17 17:58N 59°53' E 030°11'0 0.0
2018-Jun-17 17:28N 59°53' E 030°11'0 0.0
2018-Jun-17 17:01N 59°53' E 030°11'0 0.0
2018-Jun-17 16:27N 59°53' E 030°11'0 0.0
2018-Jun-17 15:58N 59°53' E 030°11'0 0.0
2018-Jun-17 15:30N 59°53' E 030°11'1 1.6
2018-Jun-17 15:00N 59°53' E 030°10'3 5.6
2018-Jun-17 14:30N 59°54' E 030°05'5 9.8
2018-Jun-17 14:00N 59°56' E 029°56'510.1
2018-Jun-17 13:30N 59°58' E 029°47'13 9.1
2018-Jun-17 12:06N 60°01' E 029°22'1 0.3
2018-Jun-17 09:55N 60°01' E 029°21'0 0.0
2018-Jun-17 09:16N 60°01' E 029°21'0 0.0
2018-Jun-17 08:58N 60°01' E 029°21'0 0.0
2018-Jun-17 08:22N 60°01' E 029°21'0 0.0
2018-Jun-17 07:50N 60°01' E 029°21'0 0.0
2018-Jun-17 07:25N 60°01' E 029°21'0 0.0
2018-Jun-17 06:53N 60°01' E 029°21'0 0.1
2018-Jun-17 06:25N 60°01' E 029°21'0 0.1
2018-Jun-17 05:55N 60°01' E 029°21'0 0.1
2018-Jun-17 04:40N 60°01' E 029°21'0 0.1
2018-Jun-17 04:30N 60°01' E 029°21'0 0.0
2018-Jun-17 03:52N 60°01' E 029°21'0 0.1
2018-Jun-17 03:28N 60°01' E 029°21'0 0.0
2018-Jun-17 02:49N 60°01' E 029°21'0 0.1
2018-Jun-17 02:25N 60°01' E 029°21'0 0.1
2018-Jun-17 01:57N 60°01' E 029°21'1 1.5
2018-Jun-17 01:29N 60°01' E 029°20'4 7.7
2018-Jun-17 00:54N 60°02' E 029°11'3 8.1
2018-Jun-17 00:29N 60°02' E 029°05'712.5
2018-Jun-16 23:57N 60°02' E 028°51'4 8.3
2018-Jun-16 23:30N 60°02' E 028°44'611.1
2018-Jun-16 23:00N 60°03' E 028°33'510.3
2018-Jun-16 22:30N 60°04' E 028°23'510.6
2018-Jun-16 22:00N 60°07' E 028°14'510.9
2018-Jun-16 21:30N 60°09' E 028°04'610.7
2018-Jun-16 20:56N 60°10' E 027°52'612.0
2018-Jun-16 20:25N 60°09' E 027°39'4 8.0
2018-Jun-16 19:58N 60°07' E 027°33'510.7
2018-Jun-16 19:30N 60°04' E 027°25'712.9
2018-Jun-16 18:59N 60°01' E 027°13'4 7.8
2018-Jun-16 18:30N 59°58' E 027°07'3 5.5
2018-Jun-16 18:00N 59°58' E 027°02'510.9
2018-Jun-16 17:30N 59°59' E 026°51'510.9
2018-Jun-16 17:00N 59°59' E 026°40'610.9
2018-Jun-16 16:30N 59°58' E 026°29'1010.8
2018-Jun-16 15:34N 59°56' E 026°10'110.6
2018-Jun-16 15:30N 59°55' E 026°09'510.4
2018-Jun-16 15:00N 59°54' E 025°59'510.5
2018-Jun-16 14:30N 59°53' E 025°49'510.4
2018-Jun-16 14:00N 59°52' E 025°39'510.4
2018-Jun-16 13:30N 59°51' E 025°29'510.4
2018-Jun-16 13:00N 59°49' E 025°19'510.2
2018-Jun-16 12:30N 59°48' E 025°08'510.3
2018-Jun-16 12:00N 59°47' E 024°59'510.5
2018-Jun-16 11:30N 59°46' E 024°48'710.7
2018-Jun-16 10:52N 59°45' E 024°35'410.8
2018-Jun-16 10:30N 59°44' E 024°28'910.8
2018-Jun-16 09:42N 59°41' E 024°11'210.8
2018-Jun-16 09:30N 59°40' E 024°07'510.8
2018-Jun-16 09:00N 59°39' E 023°57'510.5
2018-Jun-16 08:30N 59°37' E 023°47'510.6
2018-Jun-16 08:00N 59°35' E 023°37'510.7
2018-Jun-16 07:30N 59°34' E 023°27'510.6
2018-Jun-16 07:00N 59°32' E 023°17'510.6
2018-Jun-16 06:30N 59°30' E 023°07'710.8
2018-Jun-16 05:50N 59°28' E 022°54'410.7
2018-Jun-16 05:30N 59°27' E 022°47'3010.5
2018-Jun-16 02:39N 59°10' E 021°59'210.6
2018-Jun-16 02:30N 59°09' E 021°56'1810.3
2018-Jun-16 00:47N 58°57' E 021°33'310.2
2018-Jun-16 00:30N 58°54' E 021°30'  

Dump ship's entire track history